createdAt,value
2022-11-14T00:02:32.730Z,98778.50
2022-11-14T00:08:24.688Z,98772.00
2022-11-14T00:14:07.708Z,98789.09
2022-11-14T00:19:50.681Z,98793.34
2022-11-14T00:25:37.702Z,98804.00
2022-11-14T00:31:21.771Z,98804.28
2022-11-14T00:37:04.724Z,98800.63
2022-11-14T00:42:51.717Z,98794.00
2022-11-14T00:48:34.749Z,98784.41
2022-11-14T00:54:17.729Z,98777.72
2022-11-14T01:00:09.702Z,98770.84
2022-11-14T01:05:55.712Z,98755.69
2022-11-14T01:11:38.717Z,98755.34
2022-11-14T01:17:24.721Z,98753.81
2022-11-14T01:23:07.712Z,98751.22
2022-11-14T01:28:52.012Z,98731.50
2022-11-14T01:34:38.736Z,98724.59
2022-11-14T01:40:22.720Z,98717.97
2022-11-14T01:46:11.729Z,98692.44
2022-11-14T01:52:01.701Z,98691.97
2022-11-14T01:57:47.747Z,98689.72
2022-11-14T02:03:30.741Z,98668.31
2022-11-14T02:09:18.733Z,98681.84
2022-11-14T02:15:05.779Z,98663.75
2022-11-14T02:20:55.068Z,98657.50
2022-11-14T02:26:38.755Z,98659.47
2022-11-14T02:32:22.760Z,98646.91
2022-11-14T02:38:08.761Z,98644.22
2022-11-14T02:43:52.741Z,98639.19
2022-11-14T02:49:35.974Z,98626.84
2022-11-14T02:55:22.737Z,98629.75
2022-11-14T03:01:20.967Z,98619.50
2022-11-14T03:07:04.832Z,98619.94
2022-11-14T03:12:50.774Z,98603.94
2022-11-14T03:18:33.754Z,98601.84
2022-11-14T03:24:16.766Z,98603.56
2022-11-14T03:30:02.785Z,98613.03
2022-11-14T03:35:45.768Z,98621.25
2022-11-14T03:41:28.751Z,98613.34
2022-11-14T03:47:14.766Z,98602.25
2022-11-14T03:52:58.773Z,98599.69
2022-11-14T03:58:41.760Z,98590.13
2022-11-14T04:04:28.159Z,98589.28
2022-11-14T04:10:10.785Z,98578.00
2022-11-14T04:15:53.811Z,98584.34
2022-11-14T04:21:39.888Z,98582.13
2022-11-14T04:27:23.763Z,98556.69
2022-11-14T04:33:06.774Z,98558.50
2022-11-14T04:38:52.797Z,98555.16
2022-11-14T04:44:35.775Z,98538.09
2022-11-14T04:50:21.163Z,98514.56
2022-11-14T04:56:06.785Z,98512.06
2022-11-14T05:01:55.870Z,98513.06
2022-11-14T05:07:38.828Z,98516.63
2022-11-14T05:13:23.787Z,98514.41
2022-11-14T05:19:06.804Z,98518.84
2022-11-14T05:24:49.803Z,98531.81
2022-11-14T05:30:35.857Z,98526.75
2022-11-14T05:36:19.829Z,98532.66
2022-11-14T05:42:03.084Z,98527.34
2022-11-14T05:47:48.879Z,98515.06
2022-11-14T05:53:31.888Z,98520.53
2022-11-14T05:59:14.869Z,98519.84
2022-11-14T06:05:00.831Z,98521.56
2022-11-14T06:10:43.988Z,98529.22
2022-11-14T06:16:28.839Z,98534.97
2022-11-14T06:22:14.854Z,98544.38
2022-11-14T06:27:57.900Z,98558.63
2022-11-14T06:33:41.867Z,98575.28
2022-11-14T06:39:28.877Z,98571.88
2022-11-14T06:45:12.846Z,98576.41
2022-11-14T06:51:01.864Z,98595.03
2022-11-14T06:56:46.869Z,98588.47
2022-11-14T07:02:36.070Z,98583.97
2022-11-14T07:08:21.227Z,98599.09
2022-11-14T07:14:07.887Z,98609.13
2022-11-14T07:19:50.895Z,98607.56
2022-11-14T07:25:33.889Z,98614.59
2022-11-14T07:31:21.887Z,98615.34
2022-11-14T07:37:04.855Z,98609.00
2022-11-14T07:42:47.870Z,98613.03
2022-11-14T07:48:36.857Z,98595.38
2022-11-14T07:54:20.864Z,98592.28
2022-11-14T08:00:03.911Z,98583.94
2022-11-14T08:05:50.887Z,98594.66
2022-11-14T08:11:46.914Z,98596.56
2022-11-14T08:17:30.004Z,98582.44
2022-11-14T08:23:20.912Z,98572.59
2022-11-14T08:29:04.910Z,98557.59
2022-11-14T08:34:47.928Z,98557.44
2022-11-14T08:40:34.912Z,98554.59
2022-11-14T08:46:19.926Z,98550.13
2022-11-14T08:52:02.929Z,98546.16
2022-11-14T08:57:49.839Z,98531.16
2022-11-14T09:03:39.040Z,98542.09
2022-11-14T09:09:21.928Z,98530.69
2022-11-14T09:15:06.929Z,98507.75
2022-11-14T09:20:51.117Z,98483.75
2022-11-14T09:26:33.917Z,98487.19
2022-11-14T09:32:19.901Z,98489.72
2022-11-14T09:38:02.937Z,98505.09
2022-11-14T09:44:03.911Z,98499.47
2022-11-14T09:49:53.949Z,98500.41
2022-11-14T09:55:38.930Z,98494.00
2022-11-14T10:01:40.000Z,98457.94
2022-11-14T10:07:37.979Z,98431.63
2022-11-14T10:13:33.208Z,98404.84
2022-11-14T10:19:30.657Z,98393.31
2022-11-14T10:25:44.003Z,98373.78
2022-11-14T10:31:37.956Z,98361.94
2022-11-14T10:37:31.956Z,98362.59
2022-11-14T10:43:30.970Z,98369.53
2022-11-14T10:49:15.947Z,98358.25
2022-11-14T10:55:06.995Z,98350.31
2022-11-14T11:00:59.009Z,98347.59
2022-11-14T11:06:42.957Z,98339.47
2022-11-14T11:12:32.048Z,98343.09
2022-11-14T11:18:35.201Z,98334.75
2022-11-14T11:24:17.975Z,98349.31
2022-11-14T11:30:15.217Z,98338.63
2022-11-14T11:36:05.986Z,98324.84
2022-11-14T11:42:08.738Z,98325.09
2022-11-14T11:47:53.990Z,98314.69
2022-11-14T11:53:45.008Z,98329.34
2022-11-14T11:59:43.007Z,98326.50
2022-11-14T12:05:32.990Z,98326.31
2022-11-14T12:11:21.022Z,98336.75
2022-11-14T12:17:24.999Z,98319.19
2022-11-14T12:23:43.981Z,98308.38
2022-11-14T12:29:54.078Z,98311.09
2022-11-14T12:35:39.986Z,98311.34
2022-11-14T12:41:34.012Z,98294.06
2022-11-14T12:47:35.015Z,98291.94
2022-11-14T12:53:49.000Z,98297.28
2022-11-14T12:59:45.029Z,98289.13
2022-11-14T13:05:54.043Z,98290.63
2022-11-14T13:12:09.180Z,98288.47
2022-11-14T13:18:16.040Z,98275.91
2022-11-14T13:24:16.070Z,98279.44
2022-11-14T13:29:59.085Z,98276.13
2022-11-14T13:36:12.077Z,98280.47
2022-11-14T13:42:31.310Z,98277.66
2022-11-14T13:48:42.501Z,98257.47
2022-11-14T13:54:28.086Z,98266.28
2022-11-14T14:00:26.049Z,98270.53
2022-11-14T14:06:22.287Z,98259.19
2022-11-14T14:12:34.109Z,98249.19
2022-11-14T14:18:32.370Z,98246.34
2022-11-14T14:24:28.087Z,98250.97
2022-11-14T14:30:17.123Z,98251.19
2022-11-14T14:36:09.086Z,98250.28
2022-11-14T14:41:52.098Z,98257.16
2022-11-14T14:47:49.091Z,98250.41
2022-11-14T14:53:37.077Z,98244.38
2022-11-14T14:59:32.102Z,98244.25
2022-11-14T15:05:16.117Z,98232.44
2022-11-14T15:11:02.072Z,98234.94
2022-11-14T15:16:45.088Z,98236.59
2022-11-14T15:22:42.110Z,98248.59
2022-11-14T15:28:31.393Z,98248.47
2022-11-14T15:34:20.109Z,98253.16
2022-11-14T15:40:03.165Z,98259.16
2022-11-14T15:45:56.129Z,98260.41
2022-11-14T15:51:54.106Z,98252.91
2022-11-14T15:57:37.136Z,98242.09
2022-11-14T16:03:27.203Z,98240.13
2022-11-14T16:09:11.172Z,98233.81
2022-11-14T16:14:55.129Z,98230.56
2022-11-14T16:20:46.146Z,98222.19
2022-11-14T16:26:29.167Z,98221.06
2022-11-14T16:32:12.127Z,98225.31
2022-11-14T16:37:58.143Z,98231.22
2022-11-14T16:43:41.150Z,98230.63
2022-11-14T16:49:28.467Z,98240.84
2022-11-14T16:55:14.128Z,98238.53
2022-11-14T17:00:57.266Z,98248.19
2022-11-14T17:06:40.144Z,98252.16
2022-11-14T17:12:26.185Z,98260.13
2022-11-14T17:18:09.205Z,98255.34
2022-11-14T17:23:58.234Z,98245.75
2022-11-14T17:29:44.174Z,98244.38
2022-11-14T17:35:29.376Z,98243.13
2022-11-14T17:46:36.216Z,98253.66
2022-11-14T17:52:20.175Z,98248.19
2022-11-14T17:58:03.233Z,98250.75
2022-11-14T18:04:01.627Z,98247.13
2022-11-14T18:09:49.230Z,98259.66
2022-11-14T18:15:34.775Z,98262.66
2022-11-14T18:21:23.271Z,98259.09
2022-11-14T18:27:08.575Z,98251.94
2022-11-14T18:32:51.444Z,98256.88
2022-11-14T18:38:37.209Z,98253.63
2022-11-14T18:44:22.194Z,98261.25
2022-11-14T18:50:06.212Z,98241.75
2022-11-14T18:55:52.222Z,98252.75
2022-11-14T19:01:38.318Z,98250.53
2022-11-14T19:07:22.675Z,98248.41
2022-11-14T19:13:07.255Z,98254.06
2022-11-14T19:18:50.186Z,98254.19
2022-11-14T19:24:34.207Z,98254.50
2022-11-14T19:30:21.204Z,98255.63
2022-11-14T19:36:05.230Z,98257.19
2022-11-14T19:41:48.455Z,98264.97
2022-11-14T19:47:34.332Z,98254.41
2022-11-14T19:53:17.236Z,98259.75
2022-11-14T19:59:03.315Z,98266.09
2022-11-14T20:04:57.254Z,98258.19
2022-11-14T20:10:54.291Z,98239.88
2022-11-14T20:16:39.220Z,98246.91
2022-11-14T20:22:26.254Z,98254.69
2022-11-14T20:28:09.255Z,98244.25
2022-11-14T20:33:57.343Z,98243.53
2022-11-14T20:39:45.262Z,98242.13
2022-11-14T20:45:29.302Z,98240.84
2022-11-14T20:51:24.272Z,98239.31
2022-11-14T20:57:11.267Z,98236.22
2022-11-14T21:03:02.240Z,98238.59
2022-11-14T21:08:45.254Z,98235.38
2022-11-14T21:14:31.301Z,98219.34
2022-11-14T21:20:15.265Z,98227.81
2022-11-14T21:25:58.342Z,98224.13
2022-11-14T21:31:46.318Z,98214.28
2022-11-14T21:37:29.312Z,98211.44
2022-11-14T21:43:12.262Z,98202.28
2022-11-14T21:48:58.280Z,98201.84
2022-11-14T21:54:41.302Z,98203.53
2022-11-14T22:00:26.325Z,98209.88
2022-11-14T22:11:35.297Z,98196.63
2022-11-14T22:17:18.285Z,98193.13
2022-11-14T22:23:01.283Z,98193.94
2022-11-14T22:28:47.301Z,98201.97
2022-11-14T22:34:30.373Z,98204.66
2022-11-14T22:40:14.304Z,98199.03
2022-11-14T22:46:07.307Z,98198.75
2022-11-14T22:51:51.320Z,98196.25
2022-11-14T22:57:34.356Z,98203.41
2022-11-14T23:03:31.916Z,98201.97
2022-11-14T23:09:14.371Z,98212.81
2022-11-14T23:14:57.340Z,98191.69
2022-11-14T23:20:43.335Z,98185.78
2022-11-14T23:26:28.332Z,98182.41
2022-11-14T23:32:11.645Z,98200.41
2022-11-14T23:37:57.313Z,98186.06
2022-11-14T23:43:46.348Z,98180.59
2022-11-14T23:49:29.330Z,98173.38
2022-11-14T23:55:14.330Z,98171.59
